createdAt,value
2023-04-19T00:01:42.752Z,8.50
2023-04-19T00:04:15.802Z,7.90
2023-04-19T00:06:44.780Z,9.35
2023-04-19T00:09:13.400Z,7.47
2023-04-19T00:11:42.130Z,8.38
2023-04-19T00:14:13.316Z,8.45
2023-04-19T00:16:42.185Z,8.43
2023-04-19T00:19:11.396Z,9.32
2023-04-19T00:21:39.766Z,8.30
2023-04-19T00:24:08.552Z,6.85
2023-04-19T00:26:36.761Z,8.68
2023-04-19T00:29:04.896Z,9.88
2023-04-19T00:31:34.681Z,8.85
2023-04-19T00:34:03.319Z,10.65
2023-04-19T00:36:34.410Z,8.68
2023-04-19T00:39:02.958Z,9.93
2023-04-19T00:41:31.586Z,9.18
2023-04-19T00:44:03.114Z,7.72
2023-04-19T00:46:31.938Z,7.43
2023-04-19T00:49:03.144Z,8.55
2023-04-19T00:51:31.514Z,8.32
2023-04-19T00:54:00.168Z,7.78
2023-04-19T00:56:29.216Z,8.90
2023-04-19T00:58:58.723Z,9.23
2023-04-19T01:01:27.045Z,8.85
2023-04-19T01:03:55.514Z,8.55
2023-04-19T01:06:28.060Z,7.70
2023-04-19T01:08:56.619Z,10.85
2023-04-19T01:11:25.691Z,9.18
2023-04-19T01:13:54.147Z,9.40
2023-04-19T01:16:22.734Z,9.75
2023-04-19T01:18:51.113Z,8.48
2023-04-19T01:21:19.869Z,9.48
2023-04-19T01:23:52.728Z,9.50
2023-04-19T01:26:23.116Z,8.87
2023-04-19T01:28:51.376Z,8.68
2023-04-19T01:31:20.030Z,9.00
2023-04-19T01:33:48.440Z,8.50
2023-04-19T01:36:16.732Z,9.60
2023-04-19T01:38:47.883Z,9.32
2023-04-19T01:41:23.198Z,8.95
2023-04-19T01:43:51.642Z,9.80
2023-04-19T01:46:24.522Z,10.05
2023-04-19T01:48:52.969Z,10.00
2023-04-19T01:51:21.917Z,10.05
2023-04-19T01:53:53.558Z,9.57
2023-04-19T01:56:23.372Z,10.50
2023-04-19T01:58:51.864Z,11.07
2023-04-19T02:01:21.878Z,10.02
2023-04-19T02:03:50.510Z,10.27
2023-04-19T02:06:19.105Z,9.85
2023-04-19T02:08:47.376Z,10.90
2023-04-19T02:11:18.670Z,10.65
2023-04-19T02:13:48.173Z,10.80
2023-04-19T02:16:16.753Z,10.35
2023-04-19T02:18:47.010Z,9.80
2023-04-19T02:21:15.564Z,11.50
2023-04-19T02:23:43.803Z,10.10
2023-04-19T02:26:13.128Z,10.07
2023-04-19T02:28:41.316Z,12.00
2023-04-19T02:31:11.246Z,10.50
2023-04-19T02:33:39.775Z,11.65
2023-04-19T02:36:09.450Z,12.93
2023-04-19T02:38:37.708Z,12.10
2023-04-19T02:41:06.372Z,11.63
2023-04-19T02:43:34.724Z,12.70
2023-04-19T02:46:03.868Z,10.80
2023-04-19T02:48:33.486Z,10.77
2023-04-19T02:51:02.105Z,10.38
2023-04-19T02:53:30.281Z,11.77
2023-04-19T02:55:58.621Z,13.85
2023-04-19T02:58:27.111Z,11.57
2023-04-19T03:00:55.498Z,10.18
2023-04-19T03:03:23.741Z,11.95
2023-04-19T03:06:01.209Z,11.05
2023-04-19T03:08:29.676Z,12.55
2023-04-19T03:10:58.032Z,12.82
2023-04-19T03:13:26.206Z,12.13
2023-04-19T03:15:54.689Z,11.00
2023-04-19T03:18:22.917Z,13.10
2023-04-19T03:20:53.152Z,10.75
2023-04-19T03:23:21.586Z,10.77
2023-04-19T03:25:49.759Z,11.40
2023-04-19T03:28:17.936Z,12.10
2023-04-19T03:30:46.577Z,12.35
2023-04-19T03:33:14.917Z,13.02
2023-04-19T03:35:45.331Z,12.52
2023-04-19T03:38:14.856Z,12.15
2023-04-19T03:40:43.726Z,11.95
2023-04-19T03:43:12.131Z,11.32
2023-04-19T03:45:40.353Z,13.27
2023-04-19T03:48:08.573Z,13.63
2023-04-19T03:50:39.992Z,13.77
2023-04-19T03:53:11.815Z,11.98
2023-04-19T03:56:08.469Z,10.52
2023-04-19T03:58:37.700Z,11.77
2023-04-19T04:01:07.099Z,13.45
2023-04-19T04:03:35.865Z,10.52
2023-04-19T04:06:04.438Z,11.18
2023-04-19T04:08:32.918Z,11.75
2023-04-19T04:11:02.556Z,12.85
2023-04-19T04:13:30.687Z,11.52
2023-04-19T04:15:59.225Z,12.73
2023-04-19T04:18:28.781Z,11.57
2023-04-19T04:20:57.047Z,12.93
2023-04-19T04:23:28.558Z,12.43
2023-04-19T04:26:00.939Z,12.90
2023-04-19T04:28:30.984Z,12.50
2023-04-19T04:31:00.447Z,12.20
2023-04-19T04:33:29.679Z,12.52
2023-04-19T04:35:59.215Z,13.32
2023-04-19T04:38:27.564Z,13.30
2023-04-19T04:40:57.750Z,15.02
2023-04-19T04:43:40.658Z,13.70
2023-04-19T04:46:11.556Z,13.75
2023-04-19T04:48:50.313Z,14.50
2023-04-19T04:51:18.832Z,12.57
2023-04-19T04:53:47.646Z,13.77
2023-04-19T04:56:16.048Z,13.00
2023-04-19T04:58:45.675Z,15.63
2023-04-19T05:01:14.935Z,14.38
2023-04-19T05:03:43.220Z,12.45
2023-04-19T05:06:11.636Z,13.00
2023-04-19T05:08:42.207Z,12.65
2023-04-19T05:11:24.073Z,11.60
2023-04-19T05:13:54.504Z,11.52
2023-04-19T05:16:23.738Z,17.85
2023-04-19T05:18:58.491Z,15.50
2023-04-19T05:21:27.259Z,18.08
2023-04-19T05:23:55.660Z,19.90
2023-04-19T05:26:23.953Z,20.73
2023-04-19T05:28:56.343Z,19.75
2023-04-19T05:31:27.609Z,18.83
2023-04-19T05:33:56.163Z,17.48
2023-04-19T05:36:28.278Z,17.70
2023-04-19T05:38:56.847Z,18.15
2023-04-19T05:41:32.291Z,13.25
2023-04-19T05:44:02.026Z,13.80
2023-04-19T05:46:32.108Z,14.52
2023-04-19T05:49:03.160Z,12.85
2023-04-19T05:51:40.115Z,12.48
2023-04-19T05:54:14.501Z,12.80
2023-04-19T05:56:45.144Z,13.27
2023-04-19T05:59:25.809Z,12.95
2023-04-19T06:02:05.822Z,15.50
2023-04-19T06:04:37.633Z,15.05
2023-04-19T06:07:13.556Z,16.88
2023-04-19T06:09:53.404Z,15.77
2023-04-19T06:12:21.818Z,14.88
2023-04-19T06:14:51.476Z,18.00
2023-04-19T06:17:24.753Z,14.73
2023-04-19T06:19:53.486Z,16.23
2023-04-19T06:22:22.516Z,16.83
2023-04-19T06:24:54.135Z,17.20
2023-04-19T06:27:24.197Z,16.75
2023-04-19T06:29:53.888Z,15.10
2023-04-19T06:32:25.964Z,17.38
2023-04-19T06:34:58.638Z,15.20
2023-04-19T06:37:31.211Z,18.30
2023-04-19T06:39:59.802Z,14.25
2023-04-19T06:42:32.299Z,14.57
2023-04-19T06:45:02.332Z,16.40
2023-04-19T06:47:39.833Z,14.25
2023-04-19T06:50:10.846Z,14.00
2023-04-19T06:52:40.880Z,15.02
2023-04-19T06:55:11.935Z,16.20
2023-04-19T06:57:41.039Z,11.90
2023-04-19T07:00:15.191Z,12.40
2023-04-19T07:02:48.237Z,12.80
2023-04-19T07:05:18.987Z,13.60
2023-04-19T07:07:52.226Z,13.13
2023-04-19T07:10:20.605Z,12.18
2023-04-19T07:12:51.951Z,11.82
2023-04-19T07:15:22.310Z,12.20
2023-04-19T07:17:50.974Z,11.90
2023-04-19T07:20:19.224Z,10.48
2023-04-19T07:22:52.011Z,11.32
2023-04-19T07:25:31.436Z,12.10
2023-04-19T07:28:01.504Z,12.82
2023-04-19T07:30:46.849Z,12.82
2023-04-19T07:33:15.187Z,11.18
2023-04-19T07:35:46.560Z,13.55
2023-04-19T07:38:15.190Z,11.15
2023-04-19T07:40:43.538Z,11.98
2023-04-19T07:43:15.956Z,11.57
2023-04-19T07:45:46.287Z,9.38
2023-04-19T07:48:14.963Z,9.23
2023-04-19T07:50:52.309Z,10.10
2023-04-19T07:53:21.276Z,10.35
2023-04-19T07:55:50.208Z,10.15
2023-04-19T07:58:20.181Z,11.25
2023-04-19T08:00:52.712Z,9.35
2023-04-19T08:03:25.359Z,11.00
2023-04-19T08:05:57.995Z,9.75
2023-04-19T08:08:27.775Z,12.07
2023-04-19T08:10:56.157Z,9.38
2023-04-19T08:13:24.520Z,11.95
2023-04-19T08:18:27.730Z,9.80
2023-04-19T08:20:59.453Z,9.38
2023-04-19T08:23:34.975Z,12.60
2023-04-19T08:26:13.770Z,7.75
2023-04-19T08:28:42.331Z,11.60
2023-04-19T08:31:14.187Z,8.57
2023-04-19T08:33:42.683Z,10.30
2023-04-19T08:36:17.042Z,10.88
2023-04-19T08:39:02.034Z,8.98
2023-04-19T08:41:33.782Z,8.70
2023-04-19T08:44:06.457Z,10.32
2023-04-19T08:46:36.806Z,7.93
2023-04-19T08:49:12.709Z,7.53
2023-04-19T08:51:44.637Z,9.15
2023-04-19T08:54:19.636Z,8.52
2023-04-19T08:57:02.540Z,7.18
2023-04-19T08:59:34.706Z,9.15
2023-04-19T09:02:12.269Z,7.53
2023-04-19T09:04:42.568Z,9.70
2023-04-19T09:07:23.960Z,9.52
2023-04-19T09:10:06.945Z,8.20
2023-04-19T09:12:50.624Z,7.22
2023-04-19T09:15:40.187Z,7.88
2023-04-19T09:18:12.131Z,6.90
2023-04-19T09:20:44.259Z,6.55
2023-04-19T09:23:17.175Z,7.25
2023-04-19T09:26:19.181Z,6.43
2023-04-19T09:29:00.758Z,8.10
2023-04-19T09:31:47.995Z,6.88
2023-04-19T09:34:33.389Z,6.88
2023-04-19T09:37:32.389Z,6.18
2023-04-19T09:40:24.885Z,7.28
2023-04-19T09:48:34.326Z,7.93
2023-04-19T09:51:37.281Z,12.75
2023-04-19T09:54:10.331Z,7.20
2023-04-19T09:56:39.275Z,8.68
2023-04-19T09:59:21.211Z,8.35
2023-04-19T10:02:18.309Z,7.82
2023-04-19T10:07:41.103Z,8.55
2023-04-19T10:10:51.472Z,9.32
2023-04-19T10:13:40.082Z,9.00
2023-04-19T10:20:00.535Z,9.35
2023-04-19T10:23:00.882Z,9.35
2023-04-19T10:29:09.632Z,8.52
2023-04-19T10:32:14.366Z,9.43
2023-04-19T10:35:10.112Z,10.38
2023-04-19T10:41:42.295Z,8.80
2023-04-19T10:47:24.572Z,8.50
2023-04-19T10:50:24.773Z,10.80
2023-04-19T10:52:55.918Z,9.77
2023-04-19T10:55:40.334Z,8.90
2023-04-19T10:58:25.342Z,9.82
2023-04-19T11:01:47.128Z,9.32
2023-04-19T11:04:53.531Z,9.82
2023-04-19T11:08:22.112Z,11.32
2023-04-19T11:11:12.982Z,8.60
2023-04-19T11:14:14.055Z,6.05
2023-04-19T11:17:32.851Z,8.40
2023-04-19T11:20:41.678Z,6.88
2023-04-19T11:25:07.553Z,6.22
2023-04-19T11:31:50.264Z,7.20
2023-04-19T11:34:38.384Z,4.88
2023-04-19T11:38:11.415Z,3.05
2023-04-19T11:44:02.977Z,4.78
2023-04-19T11:51:00.243Z,4.13
2023-04-19T11:57:41.444Z,2.60
2023-04-19T12:00:48.054Z,3.63
2023-04-19T12:03:48.150Z,3.25
2023-04-19T12:06:55.509Z,2.58
2023-04-19T12:10:29.685Z,3.55
2023-04-19T12:13:21.929Z,2.92
2023-04-19T12:16:33.954Z,5.25
2023-04-19T12:20:09.811Z,5.25
2023-04-19T12:26:34.394Z,3.78
2023-04-19T12:35:20.840Z,3.25
2023-04-19T12:37:59.461Z,3.78
2023-04-19T12:44:03.854Z,2.40
2023-04-19T12:46:48.876Z,2.55
2023-04-19T12:49:29.219Z,4.25
2023-04-19T12:56:00.716Z,2.85
2023-04-19T12:58:48.713Z,2.50
2023-04-19T13:01:40.697Z,3.03
2023-04-19T13:04:23.969Z,2.95
2023-04-19T13:07:47.059Z,2.47
2023-04-19T13:10:51.810Z,2.50
2023-04-19T13:13:51.290Z,3.25
2023-04-19T13:16:50.407Z,2.78
2023-04-19T13:20:28.357Z,3.08
2023-04-19T13:23:13.925Z,4.53
2023-04-19T13:29:04.324Z,3.20
2023-04-19T13:31:57.445Z,3.35
2023-04-19T13:34:47.009Z,2.95
2023-04-19T13:37:58.855Z,3.47
2023-04-19T13:40:59.930Z,3.33
2023-04-19T13:43:54.352Z,1.98
2023-04-19T13:46:31.907Z,2.85
2023-04-19T13:49:18.586Z,2.72
2023-04-19T13:52:36.386Z,3.17
2023-04-19T13:55:08.459Z,2.90
2023-04-19T13:57:58.496Z,3.13
2023-04-19T14:03:34.468Z,2.95
2023-04-19T14:06:14.328Z,2.30
2023-04-19T14:09:05.260Z,3.10
2023-04-19T14:15:58.704Z,2.10
2023-04-19T14:18:50.494Z,2.78
2023-04-19T14:21:42.712Z,2.45
2023-04-19T14:53:16.821Z,3.45
2023-04-19T14:58:48.834Z,3.78
2023-04-19T15:02:13.974Z,4.90
2023-04-19T15:08:30.619Z,4.60
2023-04-19T15:11:27.616Z,3.45
2023-04-19T15:14:14.938Z,4.70
2023-04-19T15:20:03.636Z,3.03
2023-04-19T15:33:09.285Z,3.88
2023-04-19T15:44:09.033Z,4.18
2023-04-19T15:46:50.295Z,2.90
2023-04-19T15:49:50.631Z,4.65
2023-04-19T15:52:32.541Z,4.07
2023-04-19T15:55:28.837Z,4.35
2023-04-19T15:58:09.589Z,3.00
2023-04-19T16:03:45.515Z,3.35
2023-04-19T16:10:00.445Z,4.47
2023-04-19T16:12:28.924Z,3.55
2023-04-19T16:15:26.259Z,5.50
2023-04-19T16:21:36.469Z,4.40
2023-04-19T16:24:43.213Z,3.72
2023-04-19T16:27:39.297Z,3.20
2023-04-19T16:51:37.894Z,3.33
2023-04-19T16:54:10.278Z,4.32
2023-04-19T16:56:38.704Z,3.65
2023-04-19T16:59:08.077Z,3.17
2023-04-19T17:01:36.966Z,3.08
2023-04-19T17:04:16.776Z,4.50
2023-04-19T17:06:47.780Z,3.17
2023-04-19T17:09:17.976Z,3.95
2023-04-19T17:12:12.995Z,4.65
2023-04-19T17:17:56.473Z,4.97
2023-04-19T17:20:26.521Z,4.07
2023-04-19T17:23:08.718Z,4.35
2023-04-19T17:25:40.895Z,4.20
2023-04-19T17:28:09.656Z,3.42
2023-04-19T17:30:38.227Z,3.13
2023-04-19T17:33:06.740Z,3.90
2023-04-19T17:36:09.656Z,5.13
2023-04-19T17:38:55.259Z,3.53
2023-04-19T17:41:27.440Z,4.28
2023-04-19T17:43:57.153Z,4.28
2023-04-19T17:46:53.993Z,4.47
2023-04-19T17:49:39.577Z,4.80
2023-04-19T17:53:02.209Z,4.20
2023-04-19T17:56:09.980Z,5.22
2023-04-19T17:59:08.313Z,6.13
2023-04-19T18:02:14.550Z,3.78
2023-04-19T18:05:11.675Z,4.40
2023-04-19T18:08:16.146Z,4.15
2023-04-19T18:11:02.560Z,4.40
2023-04-19T18:33:22.994Z,4.68
2023-04-19T18:39:05.867Z,5.43
2023-04-19T18:45:05.597Z,5.05
2023-04-19T18:50:52.598Z,6.60
2023-04-19T18:59:19.708Z,5.78
2023-04-19T19:02:12.587Z,4.90
2023-04-19T19:05:02.317Z,4.93
2023-04-19T19:07:42.991Z,7.20
2023-04-19T19:13:03.612Z,5.32
2023-04-19T19:16:22.312Z,6.30
2023-04-19T19:19:20.450Z,5.30
2023-04-19T19:22:14.867Z,7.47
2023-04-19T19:25:25.242Z,5.72
2023-04-19T19:28:45.900Z,5.50
2023-04-19T19:31:57.079Z,4.85
2023-04-19T19:34:30.599Z,7.60
2023-04-19T19:37:06.397Z,5.28
2023-04-19T19:39:42.582Z,5.57
2023-04-19T19:42:35.548Z,5.43
2023-04-19T19:48:42.551Z,5.72
2023-04-19T19:51:42.260Z,6.22
2023-04-19T19:54:25.003Z,5.45
2023-04-19T20:00:43.988Z,7.30
2023-04-19T20:03:48.959Z,10.68
2023-04-19T20:09:06.901Z,6.70
2023-04-19T20:18:22.065Z,7.20
2023-04-19T20:24:47.599Z,6.10
2023-04-19T20:31:05.590Z,4.72
2023-04-19T20:33:35.853Z,4.38
2023-04-19T20:36:07.370Z,5.47
2023-04-19T20:38:39.903Z,5.13
2023-04-19T20:41:11.089Z,4.68
2023-04-19T20:43:47.007Z,5.78
2023-04-19T20:46:20.192Z,5.85
2023-04-19T20:48:50.867Z,6.88
2023-04-19T20:51:19.741Z,6.63
2023-04-19T20:53:53.467Z,8.90
2023-04-19T20:56:33.841Z,5.93
2023-04-19T20:59:11.448Z,8.18
2023-04-19T21:01:45.507Z,6.80
2023-04-19T21:04:16.987Z,7.07
2023-04-19T21:06:52.202Z,5.97
2023-04-19T21:09:58.841Z,6.28
2023-04-19T21:12:28.769Z,6.32
2023-04-19T21:15:05.920Z,6.68
2023-04-19T21:17:45.342Z,6.35
2023-04-19T21:20:17.646Z,8.15
2023-04-19T21:22:49.529Z,6.72
2023-04-19T21:25:19.886Z,5.97
2023-04-19T21:27:50.910Z,7.00
2023-04-19T21:30:23.108Z,7.10
2023-04-19T21:32:56.121Z,7.55
2023-04-19T21:35:25.186Z,6.87
2023-04-19T21:37:57.997Z,7.18
2023-04-19T21:40:29.753Z,7.00
2023-04-19T21:42:58.900Z,9.77
2023-04-19T21:45:27.721Z,7.78
2023-04-19T21:47:59.042Z,6.88
2023-04-19T21:50:27.811Z,6.55
2023-04-19T21:52:56.760Z,9.55
2023-04-19T21:55:25.499Z,10.15
2023-04-19T21:58:12.006Z,7.85
2023-04-19T22:00:40.771Z,5.78
2023-04-19T22:03:11.236Z,6.28
2023-04-19T22:05:41.047Z,6.65
2023-04-19T22:08:09.830Z,6.38
2023-04-19T22:10:39.416Z,7.25
2023-04-19T22:13:08.904Z,6.85
2023-04-19T22:15:38.581Z,8.00
2023-04-19T22:18:08.372Z,12.10
2023-04-19T22:20:38.478Z,10.00
2023-04-19T22:23:07.203Z,8.20
2023-04-19T22:25:36.162Z,9.75
2023-04-19T22:28:07.299Z,9.52
2023-04-19T22:30:36.335Z,7.78
2023-04-19T22:33:04.939Z,9.57
2023-04-19T22:35:33.737Z,7.75
2023-04-19T22:38:03.722Z,7.85
2023-04-19T22:40:32.371Z,8.48
2023-04-19T22:43:01.122Z,8.00
2023-04-19T22:45:29.793Z,10.95
2023-04-19T22:47:58.604Z,11.02
2023-04-19T22:50:27.375Z,11.02
2023-04-19T22:52:56.099Z,10.75
2023-04-19T22:55:26.509Z,10.68
2023-04-19T22:57:55.278Z,7.75
2023-04-19T23:00:24.315Z,8.15
2023-04-19T23:02:53.148Z,7.93
2023-04-19T23:05:21.752Z,9.63
2023-04-19T23:07:50.888Z,10.13
2023-04-19T23:10:19.756Z,7.75
2023-04-19T23:12:49.751Z,6.68
2023-04-19T23:15:20.306Z,6.40
2023-04-19T23:17:49.114Z,6.13
2023-04-19T23:20:19.008Z,8.05
2023-04-19T23:22:47.687Z,7.13
2023-04-19T23:25:16.501Z,9.48
2023-04-19T23:27:44.947Z,7.53
2023-04-19T23:30:15.263Z,7.50
2023-04-19T23:32:43.866Z,6.75
2023-04-19T23:35:12.428Z,6.75
2023-04-19T23:37:41.289Z,6.40
2023-04-19T23:40:10.894Z,6.75
2023-04-19T23:42:39.843Z,6.70
2023-04-19T23:45:09.161Z,8.65
2023-04-19T23:47:39.196Z,6.45
2023-04-19T23:50:08.377Z,6.03
2023-04-19T23:52:36.921Z,6.82
2023-04-19T23:55:07.173Z,9.30
2023-04-19T23:57:36.116Z,9.55
